Terminal Aerodrome Forecast
Issued by NWS Wilmington, NC

Home | Current Version | Previous Version | Text Only | Print | Product List | Glossary On
Versions: 1 2 3 4 5 6 7 8 9 10 11 12 13
000
FTUS42 KILM 281720
TAFILM
TAF
KILM 281720Z 2818/2918 07011G16KT P6SM VCSH SCT030
      TEMPO 2819/2823 3SM SHRA BKN024
     FM282300 08009KT 5SM SHRA OVC030
     FM290400 08007KT P6SM VCSH BKN040=

USA.gov is the U.S. government's official web portal to all federal, state and local government web resources and services.